Time;durP1;ratioP1;P1;durP2;ratioP2;P2;SDS_P1;SDS_P2;PMS_P1;PMS_P2;Temp;Humidity;BMP_temperature;BMP_pressure;BME280_temperature;BME280_humidity;BME280_pressure;Samples;Min_cycle;Max_cycle;Signal;HPM_P1;HPM_P2
2021/08/01 00:00:46;;;;;;;2.13;1.40;;;24.70;64.40;;;;;;5009573;28;20399;-65
2021/08/01 00:03:12;;;;;;;2.23;1.67;;;24.60;64.40;;;;;;5006716;28;20396;-65
2021/08/01 00:05:37;;;;;;;1.85;1.42;;;24.60;64.40;;;;;;5009642;28;20400;-65
2021/08/01 00:08:03;;;;;;;2.20;1.40;;;24.60;64.30;;;;;;5021056;28;20437;-65
2021/08/01 00:10:29;;;;;;;1.90;1.50;;;24.60;64.30;;;;;;5024641;28;20459;-65
2021/08/01 00:12:55;;;;;;;2.17;1.47;;;24.60;64.30;;;;;;5010210;28;20393;-65
2021/08/01 00:15:22;;;;;;;1.90;1.50;;;24.60;64.30;;;;;;5010433;28;20517;-65
2021/08/01 00:17:47;;;;;;;1.88;1.40;;;24.60;64.30;;;;;;5011384;28;20789;-65
2021/08/01 00:20:13;;;;;;;2.05;1.45;;;24.60;64.40;;;;;;5012091;28;20389;-65
2021/08/01 00:22:39;;;;;;;2.47;1.70;;;24.60;64.40;;;;;;5013647;28;20560;-65
2021/08/01 00:25:05;;;;;;;2.25;1.48;;;24.60;64.30;;;;;;5012933;28;20849;-65
2021/08/01 00:27:35;;;;;;;2.17;1.40;;;24.60;64.30;;;;;;5012548;28;20385;-66
2021/08/01 00:30:05;;;;;;;2.70;1.60;;;24.60;64.30;;;;;;5006527;28;21425;-65
2021/08/01 00:32:31;;;;;;;2.80;1.50;;;24.60;64.30;;;;;;5011376;28;20470;-65
2021/08/01 00:34:56;;;;;;;1.90;1.33;;;24.60;64.40;;;;;;5015305;28;20518;-66
2021/08/01 00:37:23;;;;;;;2.10;1.40;;;24.60;64.30;;;;;;5009162;28;20450;-65
2021/08/01 00:39:50;;;;;;;2.05;1.60;;;24.60;64.40;;;;;;5010470;28;20404;-65
2021/08/01 00:42:17;;;;;;;1.75;1.27;;;24.60;64.40;;;;;;5014742;28;20394;-65
2021/08/01 00:44:42;;;;;;;2.38;1.50;;;24.60;64.40;;;;;;5012511;28;20418;-65
2021/08/01 00:47:10;;;;;;;1.60;1.20;;;24.60;64.30;;;;;;5011929;28;20389;-65
2021/08/01 00:49:35;;;;;;;2.13;1.40;;;24.60;64.30;;;;;;5009439;28;20387;-65
2021/08/01 00:52:04;;;;;;;2.45;1.50;;;24.60;64.30;;;;;;5008955;28;20394;-65
2021/08/01 00:54:31;;;;;;;1.80;1.37;;;24.60;64.40;;;;;;5012551;28;20391;-65
2021/08/01 00:56:57;;;;;;;1.85;1.40;;;24.50;64.30;;;;;;5010145;28;20389;-65
2021/08/01 00:59:24;;;;;;;1.90;1.38;;;24.50;64.30;;;;;;5010860;28;20476;-65
2021/08/01 01:01:57;;;;;;;2.20;1.30;;;24.50;64.30;;;;;;5006599;28;20384;-66
2021/08/01 01:04:33;;;;;;;2.05;1.55;;;24.50;64.30;;;;;;5009701;28;20416;-65
2021/08/01 01:07:41;;;;;;;2.60;1.70;;;24.50;64.30;;;;;;5011740;28;20965;-66
2021/08/01 01:10:27;;;;;;;1.92;1.42;;;24.50;64.30;;;;;;5021889;28;20408;-66
2021/08/01 01:13:10;;;;;;;2.30;1.40;;;24.50;64.30;;;;;;5023797;28;20427;-65
2021/08/01 01:15:42;;;;;;;1.95;1.40;;;24.50;64.40;;;;;;5023942;28;20408;-65
2021/08/01 01:18:10;;;;;;;2.13;1.42;;;24.50;64.40;;;;;;5006142;28;20448;-65
2021/08/01 01:21:06;;;;;;;1.70;1.40;;;24.50;64.40;;;;;;5005050;28;21037;-65
2021/08/01 01:23:31;;;;;;;1.70;1.25;;;24.50;64.40;;;;;;5023291;28;20505;-65
2021/08/01 01:26:01;;;;;;;2.30;1.40;;;24.50;64.50;;;;;;5007662;28;20805;-65
2021/08/01 01:28:51;;;;;;;1.75;1.50;;;24.50;64.50;;;;;;5008887;28;20390;-65
2021/08/01 01:31:43;;;;;;;1.67;1.20;;;24.50;64.40;;;;;;5020071;28;20412;-65
2021/08/01 01:34:13;;;;;;;1.80;1.40;;;24.50;64.50;;;;;;5008394;28;20439;-65
2021/08/01 01:36:42;;;;;;;1.73;1.25;;;24.50;64.50;;;;;;5010375;28;20426;-65
2021/08/01 01:39:09;;;;;;;1.70;1.40;;;24.50;64.50;;;;;;5007799;28;20391;-65
2021/08/01 01:41:37;;;;;;;2.10;1.40;;;24.50;64.40;;;;;;5004929;28;20396;-65
2021/08/01 01:44:06;;;;;;;1.70;1.40;;;24.50;64.40;;;;;;5008016;28;20477;-65
2021/08/01 01:46:34;;;;;;;2.00;1.30;;;24.40;64.40;;;;;;5008202;28;20387;-65
2021/08/01 01:49:01;;;;;;;2.17;1.47;;;24.40;64.40;;;;;;5011040;28;20914;-65
2021/08/01 01:51:27;;;;;;;1.80;1.30;;;24.50;64.40;;;;;;5012454;28;20385;-65
2021/08/01 01:53:53;;;;;;;1.90;1.40;;;24.50;65.10;;;;;;5012109;28;20453;-65
2021/08/01 01:56:20;;;;;;;2.10;1.30;;;24.40;64.40;;;;;;5006953;28;20811;-65
2021/08/01 01:58:46;;;;;;;2.00;1.40;;;24.40;64.40;;;;;;5010164;28;20407;-65
2021/08/01 02:01:11;;;;;;;1.67;1.50;;;24.40;64.40;;;;;;5007775;28;20806;-65
2021/08/01 02:03:37;;;;;;;1.73;1.30;;;24.40;64.40;;;;;;5005460;28;20947;-65
2021/08/01 02:06:03;;;;;;;2.13;1.30;;;24.50;64.50;;;;;;5008783;28;20401;-66
2021/08/01 02:08:44;;;;;;;2.35;1.48;;;24.50;64.50;;;;;;5006114;28;20391;-65
2021/08/01 02:11:11;;;;;;;1.73;1.20;;;24.40;64.50;;;;;;5007624;28;20419;-65
2021/08/01 02:13:47;;;;;;;1.90;1.50;;;24.40;64.50;;;;;;5009196;28;20389;-66
2021/08/01 02:16:13;;;;;;;2.05;1.48;;;24.40;64.50;;;;;;5010558;28;20402;-65
2021/08/01 02:18:49;;;;;;;1.70;1.30;;;24.40;64.50;;;;;;5006650;28;20789;-65
2021/08/01 02:21:20;;;;;;;1.67;1.30;;;24.40;64.50;;;;;;5003414;28;20821;-65
2021/08/01 02:23:48;;;;;;;1.80;1.40;;;24.40;64.40;;;;;;5011285;28;20407;-65
2021/08/01 02:26:17;;;;;;;2.10;1.30;;;24.40;64.40;;;;;;5010885;28;20401;-65
2021/08/01 02:28:44;;;;;;;1.98;1.35;;;24.40;64.40;;;;;;5013012;28;20395;-65
2021/08/01 02:31:12;;;;;;;1.77;1.40;;;24.40;64.40;;;;;;5012939;28;20477;-65
2021/08/01 02:33:38;;;;;;;1.48;1.15;;;24.40;64.40;;;;;;5015449;28;20390;-66
2021/08/01 02:36:06;;;;;;;2.45;1.30;;;24.40;64.40;;;;;;5015189;28;20396;-65
2021/08/01 02:38:34;;;;;;;1.70;1.20;;;24.40;64.40;;;;;;5015640;28;20514;-65
2021/08/01 02:41:05;;;;;;;1.67;1.20;;;24.40;64.40;;;;;;5010294;28;20401;-65
2021/08/01 02:43:31;;;;;;;1.65;1.10;;;24.40;64.40;;;;;;5025182;28;20397;-66
2021/08/01 02:45:57;;;;;;;1.42;1.15;;;24.40;64.50;;;;;;5021118;28;20450;-65
2021/08/01 02:48:28;;;;;;;1.65;1.13;;;24.40;64.40;;;;;;5011390;28;20391;-65
2021/08/01 02:50:59;;;;;;;1.60;1.10;;;24.40;64.50;;;;;;5016420;28;20437;-66
2021/08/01 02:53:26;;;;;;;2.50;1.27;;;24.40;64.50;;;;;;5011695;28;20430;-67
2021/08/01 02:55:54;;;;;;;1.92;1.20;;;24.40;64.50;;;;;;5008437;28;20396;-65
2021/08/01 02:58:19;;;;;;;1.70;1.20;;;24.30;64.40;;;;;;5010886;28;20436;-65
2021/08/01 03:00:47;;;;;;;1.70;1.10;;;24.30;64.40;;;;;;5009236;28;20426;-65
2021/08/01 03:03:15;;;;;;;1.30;1.00;;;24.40;64.50;;;;;;5007744;28;20964;-65
2021/08/01 03:05:43;;;;;;;1.90;1.17;;;24.40;64.50;;;;;;5014856;28;20397;-65
2021/08/01 03:08:12;;;;;;;1.42;1.10;;;24.30;64.40;;;;;;5011792;28;20468;-65
2021/08/01 03:10:45;;;;;;;1.40;0.93;;;24.40;64.50;;;;;;5012721;28;20405;-65
2021/08/01 03:13:11;;;;;;;1.30;0.93;;;24.30;64.50;;;;;;5012453;28;20397;-65
2021/08/01 03:15:37;;;;;;;1.73;1.05;;;24.30;64.50;;;;;;5005029;28;20415;-65
2021/08/01 03:18:04;;;;;;;1.77;1.20;;;24.30;64.50;;;;;;5011054;28;20408;-66
2021/08/01 03:20:29;;;;;;;1.40;1.00;;;24.30;64.50;;;;;;5016931;28;20404;-65
2021/08/01 03:22:55;;;;;;;1.73;1.27;;;24.30;64.50;;;;;;5013457;28;21107;-66
2021/08/01 03:25:21;;;;;;;1.70;1.20;;;24.30;64.50;;;;;;5010264;28;20532;-65
2021/08/01 03:27:46;;;;;;;1.50;1.13;;;24.30;64.50;;;;;;5046240;28;20391;-65
2021/08/01 03:30:12;;;;;;;2.20;1.00;;;24.30;64.50;;;;;;5015127;28;20397;-65
2021/08/01 03:32:38;;;;;;;1.50;1.07;;;24.30;64.50;;;;;;5015791;28;20388;-65
2021/08/01 03:35:04;;;;;;;1.80;1.20;;;24.30;64.50;;;;;;5011228;28;20437;-65
2021/08/01 03:37:30;;;;;;;2.35;1.10;;;24.30;64.50;;;;;;5015103;28;20391;-65
2021/08/01 03:39:55;;;;;;;1.70;1.13;;;24.30;64.50;;;;;;5012906;28;20402;-65
2021/08/01 03:42:21;;;;;;;1.50;0.90;;;24.30;64.50;;;;;;5011350;28;20454;-65
2021/08/01 03:44:47;;;;;;;1.30;0.90;;;24.30;64.50;;;;;;5010463;28;20421;-65
2021/08/01 03:47:14;;;;;;;1.60;1.00;;;24.30;65.10;;;;;;5011126;28;20419;-65
2021/08/01 03:49:43;;;;;;;1.48;0.98;;;24.30;64.50;;;;;;5012381;28;20419;-65
2021/08/01 03:52:09;;;;;;;1.80;1.10;;;24.30;64.50;;;;;;5005372;28;20476;-65
2021/08/01 03:54:34;;;;;;;1.67;1.03;;;24.30;64.50;;;;;;5010117;28;20487;-65
2021/08/01 03:57:00;;;;;;;1.27;1.08;;;24.30;64.50;;;;;;5006574;28;20423;-65
2021/08/01 03:59:26;;;;;;;2.00;1.10;;;24.30;64.50;;;;;;5013068;28;20414;-65
2021/08/01 04:01:51;;;;;;;1.90;1.08;;;24.30;64.50;;;;;;5009116;28;20408;-65
2021/08/01 04:04:17;;;;;;;1.50;1.10;;;24.30;64.50;;;;;;5013499;28;20502;-65
2021/08/01 04:06:43;;;;;;;2.20;1.00;;;24.30;64.50;;;;;;5012666;28;20485;-65
2021/08/01 04:09:08;;;;;;;1.73;0.87;;;24.30;64.60;;;;;;5011317;28;20453;-65
2021/08/01 04:11:34;;;;;;;1.55;1.10;;;24.30;64.60;;;;;;5010408;28;20396;-66
2021/08/01 04:14:00;;;;;;;1.30;1.00;;;24.30;64.60;;;;;;5009509;28;20537;-66
2021/08/01 04:16:26;;;;;;;1.60;0.95;;;24.30;64.60;;;;;;5009795;28;20478;-65
2021/08/01 04:18:52;;;;;;;1.70;1.10;;;24.20;64.50;;;;;;5007064;28;20547;-65
2021/08/01 04:21:17;;;;;;;1.50;1.10;;;24.30;64.50;;;;;;5010370;28;20416;-65
2021/08/01 04:23:43;;;;;;;1.30;0.90;;;24.20;64.50;;;;;;5012576;28;20411;-65
2021/08/01 04:26:09;;;;;;;1.40;1.00;;;24.30;64.50;;;;;;5012585;28;20414;-65
2021/08/01 04:28:36;;;;;;;1.20;1.00;;;24.20;64.50;;;;;;5012434;28;20393;-65
2021/08/01 04:31:02;;;;;;;2.10;1.00;;;24.20;64.50;;;;;;5009970;28;20399;-66
2021/08/01 04:33:28;;;;;;;1.40;1.00;;;24.20;64.50;;;;;;5009992;28;20397;-65
2021/08/01 04:35:54;;;;;;;1.40;0.90;;;24.20;64.50;;;;;;5016150;28;20386;-65
2021/08/01 04:38:20;;;;;;;1.60;1.10;;;24.30;64.70;;;;;;5010358;28;20389;-65
2021/08/01 04:40:46;;;;;;;1.60;1.00;;;24.20;64.40;;;;;;5013509;28;20398;-65
2021/08/01 04:43:11;;;;;;;2.13;1.07;;;24.20;64.50;;;;;;5007607;28;20393;-66
2021/08/01 04:45:37;;;;;;;1.90;1.08;;;24.20;64.50;;;;;;5013516;28;20787;-65
2021/08/01 04:48:04;;;;;;;1.90;1.03;;;24.20;64.60;;;;;;5015267;28;20906;-65
2021/08/01 04:50:30;;;;;;;1.80;1.08;;;24.20;64.60;;;;;;5009005;28;20542;-65
2021/08/01 04:52:55;;;;;;;1.80;1.00;;;24.20;64.60;;;;;;5008348;28;20482;-66
2021/08/01 04:55:21;;;;;;;1.70;0.80;;;24.20;64.60;;;;;;5007779;28;20515;-65
2021/08/01 04:57:47;;;;;;;1.50;1.02;;;24.20;64.60;;;;;;5011771;28;20426;-65
2021/08/01 05:00:13;;;;;;;1.67;1.10;;;24.20;64.60;;;;;;5011828;28;20494;-65
2021/08/01 05:02:39;;;;;;;1.52;1.08;;;24.20;64.60;;;;;;5011818;28;20414;-65
2021/08/01 05:05:05;;;;;;;1.40;0.98;;;24.20;64.60;;;;;;5009385;28;20424;-65
2021/08/01 05:07:31;;;;;;;1.60;0.95;;;24.20;64.60;;;;;;5014688;28;20391;-65
2021/08/01 05:09:57;;;;;;;1.42;1.00;;;24.20;64.60;;;;;;5001011;28;20407;-65
2021/08/01 05:12:23;;;;;;;1.63;1.00;;;24.20;64.60;;;;;;5014202;28;20383;-65
2021/08/01 05:14:49;;;;;;;2.50;1.10;;;24.20;64.50;;;;;;5013149;28;20398;-65
2021/08/01 05:17:15;;;;;;;1.40;1.05;;;24.20;65.10;;;;;;5002943;28;20992;-65
2021/08/01 05:19:41;;;;;;;1.30;1.00;;;24.20;64.60;;;;;;5013116;28;20400;-65
2021/08/01 05:22:08;;;;;;;1.83;1.00;;;24.20;64.60;;;;;;5004415;28;20395;-65
2021/08/01 05:24:41;;;;;;;1.30;1.00;;;24.20;64.60;;;;;;5009309;28;20424;-65
2021/08/01 05:27:07;;;;;;;1.48;1.15;;;24.20;64.60;;;;;;5008866;28;21025;-65
2021/08/01 05:29:33;;;;;;;1.40;1.00;;;24.20;64.60;;;;;;5008678;28;20403;-65
2021/08/01 05:31:59;;;;;;;1.70;1.20;;;24.20;64.60;;;;;;5006742;28;20398;-66
2021/08/01 05:34:25;;;;;;;1.25;0.90;;;24.20;64.60;;;;;;5009219;28;20389;-65
2021/08/01 05:36:51;;;;;;;2.73;0.90;;;24.20;64.60;;;;;;5010752;28;20990;-65
2021/08/01 05:39:16;;;;;;;1.90;1.00;;;24.20;64.60;;;;;;5009259;28;20389;-65
2021/08/01 05:41:42;;;;;;;2.83;1.10;;;24.20;64.60;;;;;;5003551;28;20796;-65
2021/08/01 05:44:08;;;;;;;1.80;1.10;;;24.20;64.60;;;;;;5008430;28;20416;-65
2021/08/01 05:46:34;;;;;;;1.50;1.08;;;24.20;64.60;;;;;;5008901;28;20397;-65
2021/08/01 05:48:59;;;;;;;1.40;1.10;;;24.20;64.50;;;;;;5005110;28;20488;-65
2021/08/01 05:51:25;;;;;;;1.43;1.00;;;24.20;64.50;;;;;;5009182;28;20400;-65
2021/08/01 05:53:51;;;;;;;1.50;1.13;;;24.20;64.60;;;;;;5009410;28;20462;-65
2021/08/01 05:56:16;;;;;;;5.27;1.57;;;24.20;64.50;;;;;;5008055;28;20901;-66
2021/08/01 05:58:42;;;;;;;2.30;1.30;;;24.20;64.90;;;;;;5004585;28;20453;-64
2021/08/01 06:01:12;;;;;;;2.22;1.40;;;24.20;64.10;;;;;;5011749;28;21165;-66
2021/08/01 06:03:42;;;;;;;2.55;1.27;;;24.10;63.80;;;;;;5011686;28;20394;-65
2021/08/01 06:06:11;;;;;;;2.70;1.33;;;24.10;63.40;;;;;;5011378;28;20410;-66
2021/08/01 06:08:42;;;;;;;2.38;1.10;;;24.10;63.50;;;;;;5011685;28;20497;-65
2021/08/01 06:11:09;;;;;;;2.40;1.30;;;24.10;63.50;;;;;;5014570;28;20850;-65
2021/08/01 06:13:34;;;;;;;2.28;1.15;;;24.10;63.40;;;;;;5006037;28;20397;-65
2021/08/01 06:16:00;;;;;;;2.60;1.08;;;24.10;63.00;;;;;;4981699;28;20430;-65
2021/08/01 06:18:26;;;;;;;2.73;0.90;;;24.10;64.20;;;;;;5000971;28;20477;-65
2021/08/01 06:21:02;;;;;;;2.08;0.90;;;24.10;62.60;;;;;;4990615;28;20434;-65
2021/08/01 06:23:28;;;;;;;2.85;1.10;;;24.10;62.40;;;;;;4987104;28;20740;-65
2021/08/01 06:25:53;;;;;;;2.80;1.00;;;24.10;63.40;;;;;;4991403;28;20406;-66
2021/08/01 06:28:19;;;;;;;2.63;1.10;;;24.10;62.20;;;;;;4988320;28;20397;-66
2021/08/01 06:30:45;;;;;;;4.60;1.00;;;24.10;61.50;;;;;;4992417;28;20413;-65
2021/08/01 06:33:10;;;;;;;3.28;0.70;;;24.10;61.50;;;;;;4994685;28;20402;-65
2021/08/01 06:35:37;;;;;;;3.10;0.90;;;24.10;61.50;;;;;;4990583;28;20395;-65
2021/08/01 06:38:02;;;;;;;3.30;0.70;;;24.10;61.50;;;;;;4990447;28;20398;-65
2021/08/01 06:40:28;;;;;;;3.70;0.90;;;24.10;61.50;;;;;;4988317;28;20421;-65
2021/08/01 06:42:54;;;;;;;1.90;0.60;;;24.10;61.70;;;;;;4986440;28;20910;-65
2021/08/01 06:45:19;;;;;;;3.30;0.70;;;24.10;61.70;;;;;;4994249;28;20459;-65
2021/08/01 06:47:45;;;;;;;2.70;0.60;;;24.10;61.80;;;;;;4994776;28;20394;-65
2021/08/01 06:50:11;;;;;;;2.90;0.60;;;24.10;61.70;;;;;;4988672;28;20391;-66
2021/08/01 06:52:37;;;;;;;4.47;0.60;;;24.10;61.60;;;;;;4990624;28;20389;-65
2021/08/01 06:55:03;;;;;;;0.95;0.40;;;24.10;61.80;;;;;;4987546;28;20478;-65
2021/08/01 06:57:28;;;;;;;1.10;0.50;;;24.00;61.40;;;;;;5022721;28;20452;-65
2021/08/01 06:59:54;;;;;;;2.77;0.50;;;24.10;62.20;;;;;;4988676;28;20398;-65
2021/08/01 07:02:19;;;;;;;1.95;0.40;;;24.10;61.50;;;;;;4988895;28;20862;-64
2021/08/01 07:04:45;;;;;;;3.80;0.50;;;24.00;61.60;;;;;;4990792;28;20606;-65
2021/08/01 07:07:11;;;;;;;6.20;0.63;;;24.10;61.40;;;;;;4989843;28;20395;-65
2021/08/01 07:09:40;;;;;;;1.77;0.30;;;24.00;61.40;;;;;;4989682;28;20408;-65
2021/08/01 07:12:07;;;;;;;4.15;0.40;;;24.10;61.40;;;;;;4996101;28;20377;-65
2021/08/01 07:14:33;;;;;;;4.15;0.50;;;24.10;60.80;;;;;;4991624;28;20494;-65
2021/08/01 07:17:00;;;;;;;4.03;0.50;;;24.10;61.10;;;;;;5002816;28;20479;-65
2021/08/01 07:19:26;;;;;;;4.87;0.60;;;24.10;61.10;;;;;;4990474;28;21360;-65
2021/08/01 07:21:51;;;;;;;7.97;0.60;;;24.10;61.50;;;;;;4989115;28;21362;-65
2021/08/01 07:24:17;;;;;;;3.88;0.68;;;24.10;62.00;;;;;;4995000;28;20417;-65
2021/08/01 07:26:43;;;;;;;11.05;0.90;;;24.10;62.60;;;;;;4985175;28;20409;-64
2021/08/01 07:29:08;;;;;;;5.40;0.70;;;24.10;62.40;;;;;;4985342;28;20409;-65
2021/08/01 07:31:34;;;;;;;3.92;0.50;;;24.10;62.20;;;;;;4986041;28;20716;-65
2021/08/01 07:34:02;;;;;;;1.67;0.40;;;24.20;62.40;;;;;;4986567;28;20414;-65
2021/08/01 07:36:28;;;;;;;1.87;0.50;;;24.10;62.60;;;;;;4985754;28;20398;-65
2021/08/01 07:38:54;;;;;;;4.00;0.63;;;24.10;62.50;;;;;;4989076;28;20404;-66
2021/08/01 07:41:20;;;;;;;1.95;0.40;;;24.10;62.60;;;;;;4990163;28;20417;-65
2021/08/01 07:43:46;;;;;;;1.60;0.67;;;24.10;62.70;;;;;;4986427;28;20837;-65
2021/08/01 07:46:12;;;;;;;3.53;0.50;;;24.10;62.30;;;;;;4988620;28;20910;-65
2021/08/01 07:48:38;;;;;;;3.97;0.50;;;24.10;62.20;;;;;;4991344;28;20402;-65
2021/08/01 07:51:03;;;;;;;7.27;0.80;;;24.10;62.70;;;;;;4990295;28;20394;-65
2021/08/01 07:53:29;;;;;;;3.20;0.50;;;24.20;63.10;;;;;;4989792;28;20395;-65
2021/08/01 07:55:54;;;;;;;2.30;0.40;;;24.20;63.10;;;;;;4996405;28;20399;-65
2021/08/01 07:58:20;;;;;;;5.68;0.63;;;24.20;62.90;;;;;;4991648;28;20429;-65
2021/08/01 08:00:46;;;;;;;4.97;0.67;;;24.20;62.90;;;;;;4987971;28;20400;-66
2021/08/01 08:03:12;;;;;;;3.20;0.60;;;24.20;63.10;;;;;;4986595;28;21208;-65
2021/08/01 08:05:37;;;;;;;2.17;0.47;;;24.20;62.20;;;;;;4989107;28;20458;-65
2021/08/01 08:08:03;;;;;;;1.30;0.38;;;24.10;62.10;;;;;;4985518;28;20396;-65
2021/08/01 08:10:29;;;;;;;2.60;0.40;;;24.10;61.80;;;;;;4984917;28;20464;-65
2021/08/01 08:12:54;;;;;;;2.28;0.40;;;24.10;62.00;;;;;;5025562;28;20398;-65
2021/08/01 08:15:20;;;;;;;1.53;0.50;;;24.10;62.10;;;;;;5019679;28;20392;-65
2021/08/01 08:17:46;;;;;;;6.90;0.70;;;24.10;62.00;;;;;;4988649;28;20472;-65
2021/08/01 08:20:12;;;;;;;3.50;0.67;;;24.10;61.80;;;;;;4988601;28;20403;-65
2021/08/01 08:22:38;;;;;;;2.88;0.70;;;24.10;61.70;;;;;;4989278;28;20410;-66
2021/08/01 08:25:05;;;;;;;3.45;0.60;;;24.00;61.70;;;;;;4989060;28;20469;-65
2021/08/01 08:27:33;;;;;;;1.65;0.55;;;24.10;61.50;;;;;;5024538;28;20415;-65
2021/08/01 08:29:59;;;;;;;1.92;0.40;;;24.00;61.00;;;;;;4990315;28;20390;-65
2021/08/01 08:32:25;;;;;;;2.10;0.40;;;24.10;61.20;;;;;;4986595;28;20392;-65
2021/08/01 08:34:50;;;;;;;2.20;0.40;;;24.10;61.20;;;;;;4984922;28;20402;-65
2021/08/01 08:37:16;;;;;;;1.52;0.30;;;24.00;61.10;;;;;;4984729;28;20473;-65
2021/08/01 08:39:42;;;;;;;1.60;0.40;;;24.00;61.30;;;;;;4984603;28;20399;-65
2021/08/01 08:42:07;;;;;;;0.90;0.30;;;24.00;61.10;;;;;;4985285;28;20790;-66
2021/08/01 08:44:35;;;;;;;1.63;0.35;;;24.00;61.10;;;;;;4986228;28;20903;-65
2021/08/01 08:47:02;;;;;;;1.20;0.30;;;24.00;61.10;;;;;;4986610;28;20393;-65
2021/08/01 08:49:29;;;;;;;1.60;0.40;;;24.00;61.30;;;;;;4988838;28;20510;-65
2021/08/01 08:51:55;;;;;;;1.80;0.55;;;24.00;61.20;;;;;;4989650;28;20874;-65
2021/08/01 08:54:43;;;;;;;2.03;0.50;;;24.00;61.10;;;;;;4988207;28;21003;-65
2021/08/01 08:57:18;;;;;;;2.00;0.60;;;24.00;61.00;;;;;;4985175;28;20406;-65
2021/08/01 08:59:44;;;;;;;1.85;0.50;;;24.00;61.10;;;;;;4988904;28;20948;-65
2021/08/01 09:02:13;;;;;;;1.52;0.40;;;24.00;61.00;;;;;;4983894;28;20894;-64
2021/08/01 09:04:44;;;;;;;2.15;0.50;;;23.90;61.30;;;;;;4986825;28;20430;-65
2021/08/01 09:07:09;;;;;;;1.58;0.55;;;24.00;61.10;;;;;;4990227;28;20889;-65
2021/08/01 09:09:35;;;;;;;0.97;0.40;;;23.90;61.10;;;;;;4985338;28;20398;-65
2021/08/01 09:12:01;;;;;;;1.70;0.50;;;23.90;61.10;;;;;;4984132;28;20622;-65
2021/08/01 09:14:26;;;;;;;2.80;0.50;;;23.90;61.00;;;;;;4983988;28;20391;-65
2021/08/01 09:16:52;;;;;;;0.75;0.40;;;24.00;61.10;;;;;;4988634;28;20391;-65
2021/08/01 09:19:37;;;;;;;0.60;0.30;;;23.90;61.20;;;;;;4987487;28;20411;-65
2021/08/01 09:22:22;;;;;;;0.95;0.40;;;23.90;61.20;;;;;;4988565;28;20757;-65
2021/08/01 09:24:49;;;;;;;0.80;0.40;;;23.90;61.30;;;;;;4983334;28;20457;-65
2021/08/01 09:27:30;;;;;;;0.88;0.47;;;23.90;61.10;;;;;;4986909;28;20422;-65
2021/08/01 09:29:56;;;;;;;1.80;0.40;;;23.90;60.90;;;;;;4988830;28;20901;-65
2021/08/01 09:32:24;;;;;;;0.70;0.40;;;23.90;61.00;;;;;;4983544;28;20387;-65
2021/08/01 09:34:50;;;;;;;0.85;0.30;;;23.90;61.00;;;;;;4989150;28;20402;-65
2021/08/01 09:37:31;;;;;;;0.60;0.30;;;23.90;61.00;;;;;;4985895;28;20457;-65
2021/08/01 09:40:06;;;;;;;1.00;0.40;;;23.90;61.00;;;;;;4993593;28;20427;-65
2021/08/01 09:42:43;;;;;;;1.48;0.40;;;23.90;60.80;;;;;;4993072;28;20525;-65
2021/08/01 09:45:21;;;;;;;0.80;0.40;;;23.90;60.90;;;;;;5026332;28;20525;-65
2021/08/01 09:47:49;;;;;;;1.40;0.40;;;23.90;60.80;;;;;;4997307;28;20397;-65
2021/08/01 09:50:16;;;;;;;1.20;0.38;;;23.90;60.80;;;;;;4987365;28;20395;-65
2021/08/01 09:52:42;;;;;;;0.70;0.40;;;23.90;60.90;;;;;;4988845;28;20438;-65
2021/08/01 09:55:19;;;;;;;1.23;0.30;;;23.80;60.70;;;;;;4990029;28;21183;-65
2021/08/01 09:57:53;;;;;;;0.65;0.30;;;23.90;60.60;;;;;;4988044;28;21110;-65
2021/08/01 10:00:21;;;;;;;0.77;0.30;;;23.90;60.80;;;;;;4989093;28;20876;-65
2021/08/01 10:02:47;;;;;;;1.00;0.30;;;23.90;61.20;;;;;;4988159;28;21494;-65
2021/08/01 10:05:24;;;;;;;0.85;0.30;;;23.90;60.80;;;;;;4986810;28;20429;-65
2021/08/01 10:07:51;;;;;;;0.77;0.40;;;23.90;60.90;;;;;;4989295;28;20422;-65
2021/08/01 10:10:25;;;;;;;1.17;0.40;;;23.90;60.90;;;;;;4987335;28;20897;-65
2021/08/01 10:12:57;;;;;;;0.70;0.30;;;23.90;61.00;;;;;;4989335;28;20445;-65
2021/08/01 10:15:25;;;;;;;0.83;0.47;;;23.90;60.80;;;;;;4986659;28;20490;-65
2021/08/01 10:17:52;;;;;;;0.93;0.40;;;23.90;60.70;;;;;;4989447;28;20422;-65
2021/08/01 10:20:18;;;;;;;0.50;0.30;;;23.90;60.70;;;;;;4987271;28;20434;-65
2021/08/01 10:22:46;;;;;;;0.80;0.40;;;23.90;60.80;;;;;;4987244;28;20430;-65
2021/08/01 10:25:21;;;;;;;0.77;0.30;;;23.90;60.70;;;;;;4986536;28;20437;-65
2021/08/01 10:27:51;;;;;;;1.08;0.40;;;23.80;60.90;;;;;;4988146;28;20472;-65
2021/08/01 10:30:27;;;;;;;1.15;0.40;;;23.90;60.80;;;;;;4986365;28;20485;-65
2021/08/01 10:33:05;;;;;;;0.60;0.30;;;23.90;60.80;;;;;;4989131;28;20409;-66
2021/08/01 10:35:52;;;;;;;0.50;0.30;;;23.90;60.80;;;;;;4988720;28;20515;-65
2021/08/01 10:38:23;;;;;;;2.50;0.30;;;23.90;60.60;;;;;;4985315;28;20409;-66
2021/08/01 10:40:54;;;;;;;0.47;0.32;;;23.90;61.20;;;;;;4988371;28;20417;-65
2021/08/01 10:43:29;;;;;;;1.80;0.50;;;23.90;61.20;;;;;;4990714;28;20441;-66
2021/08/01 10:45:56;;;;;;;0.80;0.30;;;23.90;61.00;;;;;;4987972;28;20430;-66
2021/08/01 10:48:27;;;;;;;0.90;0.40;;;23.90;60.80;;;;;;4985186;28;20803;-66
2021/08/01 10:50:55;;;;;;;1.42;0.40;;;23.90;60.80;;;;;;4988915;28;20405;-65
2021/08/01 10:53:21;;;;;;;1.13;0.35;;;23.90;61.10;;;;;;4989292;28;20398;-66
2021/08/01 10:55:50;;;;;;;1.40;0.47;;;23.90;60.20;;;;;;5017507;28;20461;-65
2021/08/01 10:58:17;;;;;;;0.95;0.38;;;23.90;60.10;;;;;;4988168;28;20425;-65
2021/08/01 11:01:12;;;;;;;1.90;0.50;;;23.90;59.70;;;;;;4987092;28;20401;-65
2021/08/01 11:03:39;;;;;;;1.70;0.43;;;23.80;59.40;;;;;;4985909;28;20406;-65
2021/08/01 11:06:07;;;;;;;2.50;0.98;;;23.80;59.40;;;;;;4990239;28;20766;-65
2021/08/01 11:08:53;;;;;;;2.90;2.70;;;23.90;59.70;;;;;;4983435;28;20403;-65
2021/08/01 11:11:20;;;;;;;2.60;2.40;;;24.00;59.30;;;;;;4987282;28;21192;-64
2021/08/01 11:13:48;;;;;;;3.40;3.10;;;24.10;59.00;;;;;;4987245;28;20422;-65
2021/08/01 11:16:34;;;;;;;1.92;1.58;;;24.20;58.30;;;;;;4988936;28;20407;-64
2021/08/01 11:19:01;;;;;;;1.90;1.48;;;24.30;58.20;;;;;;4987992;28;20459;-65
2021/08/01 11:21:39;;;;;;;3.47;1.20;;;24.30;57.80;;;;;;4987905;28;20824;-65
2021/08/01 11:24:09;;;;;;;1.92;0.95;;;24.30;57.60;;;;;;4985964;28;20904;-65
2021/08/01 11:26:36;;;;;;;1.85;0.70;;;24.30;57.60;;;;;;4988859;28;20819;-65
2021/08/01 11:29:11;;;;;;;3.42;0.90;;;24.30;57.70;;;;;;4993926;28;20402;-66
2021/08/01 11:31:38;;;;;;;1.65;0.70;;;24.40;57.70;;;;;;4987957;28;20712;-66
2021/08/01 11:34:19;;;;;;;1.70;0.80;;;24.50;57.60;;;;;;4986000;28;20390;-65
2021/08/01 11:36:46;;;;;;;2.42;1.00;;;24.40;57.50;;;;;;4987997;28;20397;-65
2021/08/01 11:39:13;;;;;;;2.40;0.77;;;24.50;57.60;;;;;;4988002;28;20534;-65
2021/08/01 11:41:41;;;;;;;2.85;1.00;;;24.50;57.80;;;;;;4992248;28;20889;-65
2021/08/01 11:44:14;;;;;;;2.15;0.70;;;24.60;57.80;;;;;;4987110;28;20417;-65
2021/08/01 11:46:54;;;;;;;2.35;0.90;;;24.60;57.70;;;;;;4987558;28;20736;-64
2021/08/01 11:49:25;;;;;;;1.80;0.70;;;24.60;57.70;;;;;;4986071;28;20409;-65
2021/08/01 11:51:52;;;;;;;2.90;0.80;;;24.70;57.60;;;;;;4985304;28;20413;-65
2021/08/01 11:54:18;;;;;;;2.05;0.80;;;24.70;57.60;;;;;;4985001;28;20398;-65
2021/08/01 11:56:46;;;;;;;2.00;1.00;;;24.70;57.60;;;;;;4987626;28;20420;-66
2021/08/01 11:59:13;;;;;;;1.73;0.98;;;24.70;57.60;;;;;;4986552;28;20412;-66
2021/08/01 12:01:39;;;;;;;1.30;0.90;;;24.80;57.80;;;;;;4989100;28;20398;-65
2021/08/01 12:04:09;;;;;;;2.00;0.73;;;24.80;58.00;;;;;;4987747;28;20455;-65
2021/08/01 12:06:40;;;;;;;1.80;1.00;;;24.80;58.20;;;;;;4985590;28;20514;-65
2021/08/01 12:09:26;;;;;;;2.10;0.90;;;25.00;57.90;;;;;;4986205;28;20400;-65
2021/08/01 12:12:00;;;;;;;2.13;0.90;;;25.20;57.20;;;;;;4984804;28;20494;-64
2021/08/01 12:14:32;;;;;;;3.05;0.82;;;25.40;57.50;;;;;;4985029;28;20842;-65
2021/08/01 12:17:09;;;;;;;2.30;0.88;;;25.50;57.30;;;;;;4986260;28;20812;-65
2021/08/01 12:19:46;;;;;;;1.92;0.80;;;25.40;57.50;;;;;;4984391;28;20751;-65
2021/08/01 12:22:21;;;;;;;1.63;0.88;;;25.40;57.70;;;;;;4986915;28;20498;-65
2021/08/01 12:24:52;;;;;;;1.70;0.82;;;25.30;58.00;;;;;;4985807;28;20472;-65
2021/08/01 12:27:22;;;;;;;1.23;0.80;;;25.20;58.40;;;;;;4985229;28;20386;-65
2021/08/01 12:29:49;;;;;;;2.08;0.88;;;25.10;58.50;;;;;;4987172;28;20445;-65
2021/08/01 12:32:22;;;;;;;2.10;0.95;;;25.00;58.40;;;;;;4984015;28;20407;-65
2021/08/01 12:34:50;;;;;;;1.38;0.63;;;25.00;58.80;;;;;;4984763;28;20946;-64
2021/08/01 12:37:16;;;;;;;1.58;0.70;;;25.00;59.50;;;;;;4985665;28;20944;-65
2021/08/01 12:39:50;;;;;;;1.90;0.80;;;25.00;59.30;;;;;;4983555;28;20394;-66
2021/08/01 12:42:19;;;;;;;1.83;0.70;;;24.90;59.60;;;;;;4986726;28;20426;-65
2021/08/01 12:45:00;;;;;;;1.98;0.70;;;24.90;59.60;;;;;;4984019;28;20429;-65
2021/08/01 12:47:28;;;;;;;3.42;0.77;;;24.90;59.50;;;;;;4984397;28;20837;-65
2021/08/01 12:50:06;;;;;;;2.67;0.80;;;24.80;60.10;;;;;;4986386;28;20839;-65
2021/08/01 12:52:32;;;;;;;1.88;0.65;;;24.80;59.50;;;;;;4984594;28;20770;-65
2021/08/01 12:54:58;;;;;;;1.88;0.80;;;24.80;59.70;;;;;;4984929;28;20921;-65